TAF Text Data
IDs:
Format:
Raw Decoded Include METAR

Data at: 2040 UTC 15 Jun 2019

Region: TOP
KATL 151936Z 1520/1624 19008KT P6SM SCT040 SCT250
  FM160100 17004KT P6SM SCT250
  FM161000 20003KT P6SM SCT250
  FM161500 25006KT P6SM SCT040
  FM161900 20006KT P6SM SCT050


KBOS 152023Z 1520/1624 22015G26KT P6SM FEW120 BKN250
  FM160500 22011KT P6SM VCSH OVC080
  FM161600 20007KT 6SM -SHRA OVC020
  FM161900 18007KT 3SM -SHRA OVC018
  FM162100 19008KT 2SM -SHRA BR OVC012
  FM162200 20007KT 3SM -SHRA OVC010


KBWI 151738Z 1518/1624 20011G18KT P6SM SCT140 BKN250
  FM160100 20009KT P6SM SCT120 BKN250
  FM161500 22010G18KT P6SM SCT080 BKN250
  FM161800 23010G18KT P6SM BKN040
  FM162100 24010G18KT P6SM -SHRA VCTS BKN040CB


KCLE 151738Z 1518/1624 20010KT P6SM VCSH OVC050
  FM152000 21010KT 5SM -SHRA BR OVC025
  FM152300 20008KT 4SM -SHRA BR OVC015
  FM160500 19006KT 3SM SHRA OVC008
  FM161300 24005KT 5SM -SHRA BR OVC008
  FM162000 VRB03KT 6SM -SHRA VCTS OVC015CB


KCLT 151946Z 1520/1624 19005KT P6SM FEW050 BKN250
  FM160000 VRB03KT P6SM SCT200
  FM161200 22005KT P6SM SCT150
  FM161900 22007KT P6SM SCT050


KCVG 151730Z 1518/1624 20011KT P6SM VCSH OVC070
  FM152100 21013KT P6SM VCTS OVC050CB
  TEMPO 1521/1523 5SM -TSRA OVC025CB
  FM160100 21010KT P6SM SHRA VCTS BKN035 OVC050CB
  FM160700 22007KT P6SM VCSH BKN035 OVC040
  FM161200 22008KT P6SM VCSH OVC025
  FM161900 24008KT P6SM SHRA VCTS OVC040CB


KDCA 151738Z 1518/1624 20012G20KT P6SM SCT140 BKN250
  FM160400 20009KT P6SM SCT130 BKN250
  FM161500 21010G18KT P6SM SCT100 BKN250
  FM162100 23010G19KT P6SM -SHRA VCTS BKN040CB


KDEN 151720Z 1518/1624 03012G18KT P6SM SCT060 BKN200
  FM152200 03014KT P6SM VCTS BKN060CB BKN100
  TEMPO 1522/1602 VRB20G30KT -TSRA
  FM160200 21010KT P6SM SCT060 BKN120
  FM161000 21008KT P6SM SCT100
  FM162000 03010KT P6SM VCTS SCT060CB
  PROB30 1621/1624 -TSRA BKN060CB


KDFW 151720Z 1518/1624 18018G28KT P6SM SCT035 SCT250
  FM160500 17017KT P6SM VCTS BKN035CB
  FM160900 17015KT P6SM BKN025
  FM161300 18016KT P6SM VCTS BKN025CB
  FM161700 19017KT P6SM SCT035 BKN250


KDTW 151720Z 1518/1624 22013G20KT P6SM OVC025
  TEMPO 1520/1524 3SM SHRA BR OVC015
  FM160200 VRB05KT 6SM -SHRA BR OVC015
  FM160600 04006KT P6SM BKN015 OVC018
  FM161300 05016KT P6SM VCSH OVC025


KEWR 151934Z 1520/1624 22016G26KT P6SM FEW050 SCT130 BKN200
  FM160100 21012KT P6SM BKN120
  FM160700 22006KT P6SM BKN120
  FM161500 23013KT P6SM FEW070 BKN120
  FM161900 26010KT P6SM VCSH BKN070


KFLL 151949Z 1520/1624 13012KT P6SM VCTS SCT025CB SCT050 BKN200
  FM160300 12006KT P6SM VCSH SCT025 SCT250
  FM161400 12010KT P6SM SCT025 SCT250
  PROB30 1614/1618 3SM TSRA SCT025CB BKN050 BKN200


KIAD 151738Z 1518/1624 20012G19KT P6SM BKN120 BKN250
  FM160000 20009KT P6SM SCT120 BKN250
  FM162100 23010G18KT P6SM -SHRA VCTS BKN045CB


KIAH 151940Z 1520/1624 19015G23KT P6SM -TSRA VCTS SCT030 BKN050CB OVC250
  TEMPO 1520/1521 VRB25KT 2SM TSRA OVC040CB
  FM160300 17010KT P6SM FEW025 SCT050 SCT150
  FM161300 17008KT P6SM VCSH SCT015 BKN070
  FM161700 17014KT P6SM VCTS SCT030 BKN040CB
  PROB30 1619/1623 VRB25KT 2SM TSRA OVC025CB


KJFK 151934Z 1520/1624 19023G28KT P6SM FEW050 SCT120 BKN200
  FM160200 21015KT P6SM BKN120
  FM160800 21010KT P6SM BKN120
  FM161500 19013KT P6SM FEW060 BKN120
  FM162000 22012KT P6SM VCSH BKN060


KLAS 151723Z 1518/1624 08008KT P6SM SCT150
  FM160300 20009KT P6SM FEW150
  FM161500 VRB05KT P6SM FEW150 SCT200
  FM161900 20014G22KT P6SM SCT150 BKN200


KLAX 151720Z 1518/1624 VRB04KT P6SM FEW016 OVC022
  FM152100 25009KT P6SM SCT025
  FM160200 25006KT P6SM BKN015 OVC025
  FM160700 14003KT P6SM OVC020
  FM161700 23006KT P6SM OVC025
  FM162000 25009KT P6SM BKN025


KLGA 152038Z 1521/1624 22018G25KT P6SM FEW050 SCT150 BKN200
  TEMPO 1521/1523 19018G25KT
  FM160100 21014KT P6SM BKN120
  FM160800 22010KT P6SM BKN120
  FM161500 20012KT P6SM FEW060 BKN120
  FM162000 24011KT P6SM VCSH BKN060


KMCO 151724Z 1518/1624 09008KT P6SM VCTS SCT030CB BKN050
  TEMPO 1518/1520 3SM TSRA BKN030CB
  FM152100 08010KT P6SM SCT040 SCT080 BKN250
  FM160000 09005KT P6SM FEW040 BKN250
  FM161400 VRB05KT P6SM SCT025 BKN035
  FM161800 12007KT P6SM VCTS SCT030CB BKN050


KMDW 151740Z 1518/1624 19008KT 6SM -SHRA VCTS OVC010CB
  TEMPO 1518/1522 3SM RA OVC008
  FM152300 05010KT 5SM BR OVC010
  FM160100 03011KT 3SM BR OVC007
  FM160700 06005KT 3SM BR VCSH OVC005
  FM161200 05006KT 5SM BR OVC007
  FM161600 06007KT P6SM SCT007 OVC015
  FM162000 04010KT P6SM SCT025 OVC040


KMEM 151734Z 1518/1624 20012G23KT P6SM SCT045 BKN150
  FM160100 19011KT P6SM FEW050 OVC200
  FM161100 21012KT P6SM BKN030
  FM161500 21012G18KT P6SM BKN035 OVC150
  FM162000 21011KT P6SM VCTS BKN045CB


KMIA 151954Z 1520/1624 12008KT P6SM SHRA VCTS SCT025CB SCT070 BKN120
  FM160100 12004KT P6SM SCT025 SCT250
  FM161400 11009KT P6SM VCSH SCT025 BKN060
  PROB30 1614/1618 3SM TSRA SCT025CB BKN050 BKN200


KMSP 151744Z 1518/1624 08010KT P6SM BKN018
  FM152100 08010KT P6SM SCT015 BKN060
  FM160000 07009KT P6SM VCSH SCT020 BKN050
  TEMPO 1601/1604 4SM TSRA BR BKN008CB
  FM160400 08007KT P6SM VCSH OVC018
  FM160900 08007KT P6SM OVC011
  FM161700 07007KT P6SM OVC020
  FM162200 07006KT P6SM SCT020 BKN040


KORD 151743Z 1518/1624 19008KT 6SM -SHRA VCTS OVC015CB
  TEMPO 1519/1522 3SM RA OVC008
  FM152300 05010KT 5SM BR OVC010
  FM160100 03011KT 3SM BR OVC007
  FM160700 06005KT 3SM BR VCSH OVC005
  FM161300 05006KT 5SM BR OVC007
  FM161600 06007KT P6SM SCT007 OVC015
  FM162000 04010KT P6SM SCT025 OVC040


KPDX 152021Z 1520/1618 34007KT P6SM SCT025
  FM152200 34011KT P6SM SKC
  FM160500 33008KT P6SM SKC
  FM160900 32005KT P6SM BKN015


KPHL 151726Z 1518/1624 21014G22KT P6SM SCT200
  FM152300 20011KT P6SM BKN150
  FM161800 23011KT P6SM BKN060
  FM162100 23006KT P6SM -SHRA VCTS BKN070CB


KPHX 152002Z 1520/1624 26008KT P6SM SKC
  FM161000 11006KT P6SM SKC
  FM161900 25007KT P6SM SKC


KPIT 151721Z 1518/1624 22010KT P6SM BKN090
  FM160800 20009KT P6SM -SHRA OVC025 WS020/24035KT
  FM161100 20010G11KT P6SM VCSH OVC015 WS020/24035KT
  FM161700 23010G18KT 6SM -SHRA VCTS OVC015CB


KSAN 151720Z 1518/1624 VRB04KT P6SM OVC020
  FM151900 25008KT P6SM SCT025
  FM160200 VRB04KT P6SM OVC017
  FM161900 25008KT P6SM SCT025


KSEA 151726Z 1518/1624 VRB05KT P6SM BKN009
  TEMPO 1518/1520 SCT010
  FM152000 32008KT P6SM FEW020 SCT040
  FM160400 02006KT P6SM SKC
  FM161100 VRB05KT P6SM FEW007 BKN200
  FM161800 28008KT P6SM SCT200


KSFO 151720Z 1518/1624 26010KT P6SM FEW006 BKN010 OVC012
  FM152000 28012KT P6SM SCT015
  FM152200 28017KT P6SM FEW010
  FM160300 28012KT P6SM BKN012
  FM160700 28010KT P6SM OVC010
  FM162000 26010KT P6SM FEW010 SCT200


KSLC 151739Z 1518/1624 30009KT P6SM FEW080
  FM160400 16006KT P6SM SKC
  FM161800 30007KT P6SM SCT100


KSTL 151734Z 1518/1624 22014G23KT P6SM VCTS SCT030CB OVC100
  FM151900 22013G23KT P6SM VCSH BKN060
  FM160200 22010KT 5SM -TSRA BR SCT025CB BKN080
  TEMPO 1604/1608 2SM TSRA BR OVC020CB
  FM160800 20006KT 6SM SHRA BR VCTS SCT025CB OVC070
  FM161500 23006KT P6SM VCSH BKN040
  FM162000 26007KT 6SM -SHRA BR VCTS SCT040CB BKN090


KTPA 151722Z 1518/1624 10008KT P6SM VCSH SCT030 BKN050
  FM151900 30007KT P6SM VCTS BKN035CB
  TEMPO 1521/1601 3SM TS BKN025CB OVC100
  FM160200 06003KT P6SM SCT040 BKN120
  FM161200 08005KT P6SM FEW025 BKN250
  FM161700 15006KT P6SM SCT035 BKN250